createdAt,value
2022-11-01T00:10:21.193Z,97910
2022-11-01T00:22:21.298Z,97910
2022-11-01T00:34:21.195Z,97910
2022-11-01T00:46:21.293Z,97900
2022-11-01T00:58:21.210Z,97850
2022-11-01T01:10:21.185Z,97850
2022-11-01T01:22:21.278Z,97840
2022-11-01T01:34:21.191Z,97830
2022-11-01T01:46:21.194Z,97840
2022-11-01T01:58:21.189Z,97850
2022-11-01T02:10:21.189Z,97840
2022-11-01T02:22:21.192Z,97850
2022-11-01T02:34:21.287Z,97840
2022-11-01T02:46:21.266Z,97850
2022-11-01T02:58:21.289Z,97850
2022-11-01T03:10:21.193Z,97850
2022-11-01T03:22:21.354Z,97870
2022-11-01T03:34:21.261Z,97880
2022-11-01T03:46:21.285Z,97910
2022-11-01T03:58:21.186Z,97920
2022-11-01T04:10:21.194Z,97940
2022-11-01T04:22:24.495Z,97950
2022-11-01T04:34:21.304Z,97940
2022-11-01T04:46:21.304Z,97950
2022-11-01T04:58:21.284Z,97950
2022-11-01T05:10:21.274Z,97950
2022-11-01T05:22:21.305Z,97970
2022-11-01T05:34:21.256Z,97990
2022-11-01T05:46:21.259Z,97990
2022-11-01T05:58:23.108Z,97990
2022-11-01T06:10:21.306Z,97990
2022-11-01T06:22:21.194Z,98020
2022-11-01T06:34:21.277Z,98030
2022-11-01T06:46:21.188Z,98060
2022-11-01T06:58:21.270Z,98090
2022-11-01T07:10:21.194Z,98110
2022-11-01T07:22:21.252Z,98130
2022-11-01T07:34:21.302Z,98150
2022-11-01T07:46:21.275Z,98170
2022-11-01T07:58:21.190Z,98170
2022-11-01T08:10:21.183Z,98180
2022-11-01T08:22:21.263Z,98210
2022-11-01T08:34:21.307Z,98220
2022-11-01T08:46:21.190Z,98230
2022-11-01T08:58:21.281Z,98230
2022-11-01T09:10:21.268Z,98260
2022-11-01T09:22:21.198Z,98280
2022-11-01T09:34:21.192Z,98290
2022-11-01T09:58:21.283Z,98330
2022-11-01T10:10:21.339Z,98340
2022-11-01T10:22:21.183Z,98350
2022-11-01T10:34:21.310Z,98360
2022-11-01T10:46:21.300Z,98350
2022-11-01T10:58:21.295Z,98370
2022-11-01T11:10:23.989Z,98360
2022-11-01T11:22:21.266Z,98370
2022-11-01T11:34:21.302Z,98370
2022-11-01T11:46:21.193Z,98380
2022-11-01T11:58:21.259Z,98380
2022-11-01T12:10:21.246Z,98390
2022-11-01T12:22:21.492Z,98390
2022-11-01T12:34:21.251Z,98380
2022-11-01T12:46:21.211Z,98380
2022-11-01T12:58:21.297Z,98370
2022-11-01T13:10:21.283Z,98380
2022-11-01T13:22:21.246Z,98420
2022-11-01T13:34:21.206Z,98440
2022-11-01T13:46:22.016Z,98430
2022-11-01T13:58:21.215Z,98430
2022-11-01T14:10:21.196Z,98410
2022-11-01T14:22:21.191Z,98400
2022-11-01T14:34:21.297Z,98400
2022-11-01T14:46:21.186Z,98420
2022-11-01T14:58:21.243Z,98430
2022-11-01T15:10:21.186Z,98430
2022-11-01T15:22:21.649Z,98430
2022-11-01T15:34:21.199Z,98430
2022-11-01T15:46:21.307Z,98440
2022-11-01T15:58:21.308Z,98430
2022-11-01T16:10:21.192Z,98440
2022-11-01T16:22:21.184Z,98450
2022-11-01T16:34:21.190Z,98440
2022-11-01T16:46:21.302Z,98460
2022-11-01T16:58:21.285Z,98460
2022-11-01T17:10:21.187Z,98460
2022-11-01T17:22:21.300Z,98470
2022-11-01T17:34:21.228Z,98470
2022-11-01T17:46:21.212Z,98470
2022-11-01T17:58:21.269Z,98480
2022-11-01T18:10:21.195Z,98480
2022-11-01T18:22:21.200Z,98490
2022-11-01T18:34:21.293Z,98490
2022-11-01T18:46:26.344Z,98490
2022-11-01T18:58:21.258Z,98470
2022-11-01T19:10:21.196Z,98480
2022-11-01T19:22:21.294Z,98470
2022-11-01T19:34:21.291Z,98470
2022-11-01T19:46:21.190Z,98460
2022-11-01T19:58:21.194Z,98460
2022-11-01T20:10:21.180Z,98480
2022-11-01T20:22:21.300Z,98480
2022-11-01T20:34:21.198Z,98480
2022-11-01T20:46:21.192Z,98480
2022-11-01T20:58:21.301Z,98480
2022-11-01T21:10:21.197Z,98490
2022-11-01T21:22:21.196Z,98490
2022-11-01T21:34:21.314Z,98490
2022-11-01T21:46:21.244Z,98480
2022-11-01T21:58:21.303Z,98480
2022-11-01T22:10:21.193Z,98470
2022-11-01T22:22:21.218Z,98480
2022-11-01T22:34:21.251Z,98470
2022-11-01T22:46:21.187Z,98470
2022-11-01T22:58:21.264Z,98450
2022-11-01T23:10:21.191Z,98470
2022-11-01T23:22:21.291Z,98460
2022-11-01T23:34:21.188Z,98460
2022-11-01T23:46:21.395Z,98440
2022-11-01T23:58:21.216Z,98430
